Time,TemperatureF,DewpointF,PressureIn,WindDirection,WindDirectionDegrees,WindSpeedMPH,WindSpeedGustMPH,Humidity,HourlyPrecipIn,Conditions,Clouds,dailyrainin,SoftwareType,DateUTC
2013-05-22 00:02:00,51.7,37.0,29.99,NNW,329,14.0,16.0,58,0.00,,,0.00,weatherlink.com 1.10,2013-05-22 07:02:00,
2013-05-22 00:17:00,51.6,37.0,29.99,NNE,29,5.0,16.0,58,0.00,,,0.00,weatherlink.com 1.10,2013-05-22 07:17:00,
2013-05-22 00:33:00,51.4,36.0,30.00,NNW,348,5.0,19.0,57,0.00,,,0.00,weatherlink.com 1.10,2013-05-22 07:33:00,
2013-05-22 00:48:00,51.1,36.0,29.99,NW,321,5.0,18.0,56,0.00,,,0.00,weatherlink.com 1.10,2013-05-22 07:48:00,
2013-05-22 01:03:00,50.8,35.0,30.00,West,276,2.0,12.0,56,0.00,,,0.00,weatherlink.com 1.10,2013-05-22 08:03:00,
2013-05-22 01:18:00,50.5,35.0,30.00,NNW,333,6.0,17.0,56,0.00,,,0.00,weatherlink.com 1.10,2013-05-22 08:18:00,
2013-05-22 01:33:00,50.3,35.0,30.00,SSW,209,4.0,15.0,56,0.00,,,0.00,weatherlink.com 1.10,2013-05-22 08:33:00,
2013-05-22 01:48:00,50.2,34.0,30.00,NW,316,10.0,15.0,55,0.00,,,0.00,weatherlink.com 1.10,2013-05-22 08:48:00,
2013-05-22 02:03:00,50.0,34.0,30.00,NNE,23,11.0,18.0,55,0.00,,,0.00,weatherlink.com 1.10,2013-05-22 09:03:00,
2013-05-22 02:18:00,49.8,34.0,30.00,NW,321,10.0,15.0,55,0.00,,,0.00,weatherlink.com 1.10,2013-05-22 09:18:00,
2013-05-22 02:33:00,49.6,34.0,30.00,NNE,21,4.0,17.0,55,0.00,,,0.00,weatherlink.com 1.10,2013-05-22 09:33:00,
2013-05-22 02:48:00,49.2,34.0,30.00,West,266,1.0,9.0,56,0.00,,,0.00,weatherlink.com 1.10,2013-05-22 09:48:00,
2013-05-22 03:03:00,49.0,34.0,30.00,NW,322,2.0,11.0,56,0.00,,,0.00,weatherlink.com 1.10,2013-05-22 10:03:00,
2013-05-22 03:18:00,48.6,34.0,30.00,NW,309,1.0,14.0,57,0.00,,,0.00,weatherlink.com 1.10,2013-05-22 10:18:00,
2013-05-22 03:33:00,48.5,33.0,30.00,NNW,347,3.0,11.0,56,0.00,,,0.00,weatherlink.com 1.10,2013-05-22 10:33:00,
2013-05-22 03:48:00,48.3,33.0,30.01,NNW,340,8.0,13.0,56,0.00,,,0.00,weatherlink.com 1.10,2013-05-22 10:48:00,
2013-05-22 04:03:00,48.0,33.0,30.01,SE,143,2.0,11.0,56,0.00,,,0.00,weatherlink.com 1.10,2013-05-22 11:03:00,
2013-05-22 04:18:00,48.2,33.0,30.01,NW,321,2.0,13.0,56,0.00,,,0.00,weatherlink.com 1.10,2013-05-22 11:18:00,
2013-05-22 04:33:00,47.8,33.0,30.01,NW,314,3.0,8.0,57,0.00,,,0.00,weatherlink.com 1.10,2013-05-22 11:33:00,
2013-05-22 04:48:00,47.5,33.0,30.01,NNE,12,5.0,7.0,57,0.00,,,0.00,weatherlink.com 1.10,2013-05-22 11:48:00,
2013-05-22 05:03:00,47.3,33.0,30.01,NNW,342,3.0,9.0,57,0.00,,,0.00,weatherlink.com 1.10,2013-05-22 12:03:00,
2013-05-22 05:18:00,46.9,33.0,30.01,NE,51,4.0,8.0,58,0.00,,,0.00,weatherlink.com 1.10,2013-05-22 12:18:00,
2013-05-22 05:33:00,46.7,32.0,30.02,North,1,1.0,6.0,58,0.00,,,0.00,weatherlink.com 1.10,2013-05-22 12:33:00,
2013-05-22 05:48:00,46.5,33.0,30.01,SW,219,2.0,6.0,59,0.00,,,0.00,weatherlink.com 1.10,2013-05-22 12:48:00,
2013-05-22 06:03:00,46.4,33.0,30.02,NNW,329,0.0,4.0,59,0.00,,,0.00,weatherlink.com 1.10,2013-05-22 13:03:00,
2013-05-22 06:18:00,46.2,32.0,30.02,North,9,3.0,4.0,59,0.00,,,0.00,weatherlink.com 1.10,2013-05-22 13:18:00,
2013-05-22 06:33:00,46.8,33.0,30.02,North,4,0.0,4.0,59,0.00,,,0.00,weatherlink.com 1.10,2013-05-22 13:33:00,
2013-05-22 06:48:00,48.0,33.0,30.02,WNW,285,0.0,10.0,57,0.00,,,0.00,weatherlink.com 1.10,2013-05-22 13:48:00,
2013-05-22 07:03:00,48.7,33.0,30.03,WNW,285,1.0,9.0,56,0.00,,,0.00,weatherlink.com 1.10,2013-05-22 14:03:00,
2013-05-22 07:19:00,49.3,34.0,30.03,NW,322,6.0,9.0,55,0.00,,,0.00,weatherlink.com 1.10,2013-05-22 14:19:00,
2013-05-22 07:34:00,49.9,34.0,30.03,NNW,339,3.0,9.0,55,0.00,,,0.00,weatherlink.com 1.10,2013-05-22 14:34:00,
2013-05-22 07:49:00,50.7,34.0,30.03,NNW,335,8.0,11.0,54,0.00,,,0.00,weatherlink.com 1.10,2013-05-22 14:49:00,
2013-05-22 08:04:00,50.9,34.0,30.03,North,5,3.0,13.0,52,0.00,,,0.00,weatherlink.com 1.10,2013-05-22 15:04:00,
2013-05-22 08:19:00,52.0,34.0,30.03,NW,317,1.0,11.0,50,0.00,,,0.00,weatherlink.com 1.10,2013-05-22 15:19:00,
2013-05-22 08:34:00,53.8,34.0,30.03,NW,310,1.0,9.0,48,0.00,,,0.00,weatherlink.com 1.10,2013-05-22 15:34:00,
2013-05-22 08:49:00,53.6,33.0,30.03,NNW,338,4.0,12.0,46,0.00,,,0.00,weatherlink.com 1.10,2013-05-22 15:49:00,
2013-05-22 09:04:00,55.4,33.0,30.03,ENE,60,1.0,9.0,43,0.00,,,0.00,weatherlink.com 1.10,2013-05-22 16:04:00,
2013-05-22 09:19:00,56.1,32.0,30.03,NW,312,7.0,13.0,41,0.00,,,0.00,weatherlink.com 1.10,2013-05-22 16:19:00,
2013-05-22 09:34:00,56.7,32.0,30.02,NW,322,8.0,12.0,40,0.00,,,0.00,weatherlink.com 1.10,2013-05-22 16:34:00,
2013-05-22 09:49:00,57.4,32.0,30.02,NNW,330,5.0,11.0,38,0.00,,,0.00,weatherlink.com 1.10,2013-05-22 16:49:00,
2013-05-22 10:04:00,58.2,33.0,30.02,West,280,7.0,11.0,39,0.00,,,0.00,weatherlink.com 1.10,2013-05-22 17:04:00,
2013-05-22 10:19:00,59.1,33.0,30.01,West,267,2.0,9.0,38,0.00,,,0.00,weatherlink.com 1.10,2013-05-22 17:19:00,
2013-05-22 10:34:00,59.0,33.0,30.01,NNW,343,4.0,8.0,37,0.00,,,0.00,weatherlink.com 1.10,2013-05-22 17:34:00,
2013-05-22 10:49:00,61.4,33.0,30.00,NNE,15,1.0,8.0,34,0.00,,,0.00,weatherlink.com 1.10,2013-05-22 17:49:00,
2013-05-22 11:04:00,61.9,32.0,30.00,North,354,3.0,7.0,32,0.00,,,0.00,weatherlink.com 1.10,2013-05-22 18:04:00,
2013-05-22 11:19:00,63.1,31.0,30.00,SW,229,3.0,9.0,30,0.00,,,0.00,weatherlink.com 1.10,2013-05-22 18:19:00,
2013-05-22 11:34:00,63.5,32.0,30.00,NW,326,4.0,7.0,31,0.00,,,0.00,weatherlink.com 1.10,2013-05-22 18:34:00,
2013-05-22 11:49:00,63.5,30.0,29.99,NNE,31,7.0,9.0,28,0.00,,,0.00,weatherlink.com 1.10,2013-05-22 18:49:00,
2013-05-22 12:04:00,63.5,30.0,29.98,WSW,256,3.0,10.0,28,0.00,,,0.00,weatherlink.com 1.10,2013-05-22 19:04:00,
2013-05-22 12:19:00,66.5,31.0,29.98,West,259,3.0,7.0,27,0.00,,,0.00,weatherlink.com 1.10,2013-05-22 19:19:00,
2013-05-22 12:34:00,65.8,33.0,29.97,ESE,108,0.0,7.0,29,0.00,,,0.00,weatherlink.com 1.10,2013-05-22 19:34:00,
2013-05-22 12:49:00,66.5,33.0,29.97,NE,43,0.0,7.0,29,0.00,,,0.00,weatherlink.com 1.10,2013-05-22 19:49:00,
2013-05-22 13:04:00,66.6,32.0,29.96,South,169,3.0,8.0,28,0.00,,,0.00,weatherlink.com 1.10,2013-05-22 20:04:00,
2013-05-22 13:20:00,67.9,33.0,29.95,SSW,194,3.0,7.0,28,0.00,,,0.00,weatherlink.com 1.10,2013-05-22 20:20:00,
2013-05-22 13:35:00,68.7,33.0,29.95,WNW,287,2.0,10.0,27,0.00,,,0.00,weatherlink.com 1.10,2013-05-22 20:35:00,
2013-05-22 13:50:00,69.1,33.0,29.94,NNW,340,4.0,9.0,26,0.00,,,0.00,weatherlink.com 1.10,2013-05-22 20:50:00,
2013-05-22 14:05:00,69.2,32.0,29.94,NE,47,9.0,9.0,25,0.00,,,0.00,weatherlink.com 1.10,2013-05-22 21:05:00,
2013-05-22 14:20:00,70.0,31.0,29.93,NW,311,2.0,8.0,24,0.00,,,0.00,weatherlink.com 1.10,2013-05-22 21:20:00,
2013-05-22 14:35:00,69.3,33.0,29.93,WNW,293,1.0,14.0,26,0.00,,,0.00,weatherlink.com 1.10,2013-05-22 21:35:00,
2013-05-22 14:50:00,70.6,39.0,29.92,SSW,202,8.0,8.0,32,0.00,,,0.00,weatherlink.com 1.10,2013-05-22 21:50:00,
2013-05-22 15:05:00,69.6,39.0,29.92,South,186,4.0,13.0,33,0.00,,,0.00,weatherlink.com 1.10,2013-05-22 22:05:00,
2013-05-22 15:20:00,69.6,39.0,29.91,SW,236,7.0,14.0,33,0.00,,,0.00,weatherlink.com 1.10,2013-05-22 22:20:00,
2013-05-22 15:35:00,70.6,40.0,29.91,WSW,257,6.0,11.0,33,0.00,,,0.00,weatherlink.com 1.10,2013-05-22 22:35:00,
2013-05-22 15:50:00,70.9,40.0,29.90,WNW,290,2.0,9.0,33,0.00,,,0.00,weatherlink.com 1.10,2013-05-22 22:50:00,
2013-05-22 16:05:00,70.1,41.0,29.90,NE,45,3.0,12.0,35,0.00,,,0.00,weatherlink.com 1.10,2013-05-22 23:05:00,
2013-05-22 16:20:00,70.0,42.0,29.90,SSW,207,5.0,10.0,37,0.00,,,0.00,weatherlink.com 1.10,2013-05-22 23:20:00,
2013-05-22 16:35:00,69.5,44.0,29.89,West,280,2.0,13.0,40,0.00,,,0.00,weatherlink.com 1.10,2013-05-22 23:35:00,
2013-05-22 16:50:00,70.1,44.0,29.89,NNW,335,9.0,12.0,39,0.00,,,0.00,weatherlink.com 1.10,2013-05-22 23:50:00,
2013-05-22 17:05:00,70.1,44.0,29.89,WSW,255,7.0,14.0,39,0.00,,,0.00,weatherlink.com 1.10,2013-05-23 00:05:00,
2013-05-22 17:20:00,70.2,40.0,29.89,NW,304,5.0,8.0,34,0.00,,,0.00,weatherlink.com 1.10,2013-05-23 00:20:00,
2013-05-22 17:35:00,69.7,40.0,29.89,NNW,332,3.0,10.0,34,0.00,,,0.00,weatherlink.com 1.10,2013-05-23 00:35:00,
2013-05-22 17:50:00,68.4,40.0,29.88,WNW,301,5.0,15.0,35,0.00,,,0.00,weatherlink.com 1.10,2013-05-23 00:50:00,
2013-05-22 18:05:00,67.6,40.0,29.89,NW,309,5.0,15.0,36,0.00,,,0.00,weatherlink.com 1.10,2013-05-23 01:05:00,
2013-05-22 18:20:00,67.0,40.0,29.88,NE,34,2.0,17.0,37,0.00,,,0.00,weatherlink.com 1.10,2013-05-23 01:20:00,
2013-05-22 18:35:00,66.1,40.0,29.89,NW,313,3.0,15.0,39,0.00,,,0.00,weatherlink.com 1.10,2013-05-23 01:35:00,
2013-05-22 18:50:00,65.6,40.0,29.89,North,360,5.0,13.0,39,0.00,,,0.00,weatherlink.com 1.10,2013-05-23 01:50:00,
2013-05-22 19:05:00,65.6,40.0,29.89,SW,222,2.0,9.0,39,0.00,,,0.00,weatherlink.com 1.10,2013-05-23 02:05:00,
2013-05-22 19:20:00,64.2,40.0,29.89,NNE,18,3.0,17.0,42,0.00,,,0.00,weatherlink.com 1.10,2013-05-23 02:20:00,
2013-05-22 19:35:00,62.6,40.0,29.90,NNE,31,9.0,13.0,44,0.00,,,0.00,weatherlink.com 1.10,2013-05-23 02:35:00,
2013-05-22 19:50:00,61.6,40.0,29.90,NNW,334,7.0,15.0,46,0.00,,,0.00,weatherlink.com 1.10,2013-05-23 02:50:00,
2013-05-22 20:20:00,59.1,40.0,29.90,NW,304,6.0,14.0,50,0.00,,,0.00,weatherlink.com 1.10,2013-05-23 03:20:00,
2013-05-22 20:35:00,58.2,40.0,29.91,NNW,347,1.0,5.0,52,0.00,,,0.00,weatherlink.com 1.10,2013-05-23 03:35:00,
2013-05-22 20:50:00,57.4,41.0,29.91,North,352,2.0,13.0,54,0.00,,,0.00,weatherlink.com 1.10,2013-05-23 03:50:00,
2013-05-22 21:05:00,56.9,41.0,29.91,North,4,0.0,14.0,55,0.00,,,0.00,weatherlink.com 1.10,2013-05-23 04:05:00,
2013-05-22 22:14:00,54.3,41.0,29.93,SSE,148,3.0,7.0,61,0.00,,,0.00,weatherlink.com 1.10,2013-05-23 05:14:00,
2013-05-22 22:20:00,54.1,41.0,29.93,NNW,332,0.0,6.0,62,0.00,,,0.00,weatherlink.com 1.10,2013-05-23 05:20:00,
2013-05-22 22:35:00,53.7,41.0,29.93,WNW,284,2.0,6.0,63,0.00,,,0.00,weatherlink.com 1.10,2013-05-23 05:35:00,
2013-05-22 22:50:00,53.2,41.0,29.92,West,276,3.0,8.0,64,0.00,,,0.00,weatherlink.com 1.10,2013-05-23 05:50:00,
2013-05-22 23:05:00,52.9,41.0,29.92,NW,316,2.0,7.0,65,0.00,,,0.00,weatherlink.com 1.10,2013-05-23 06:05:00,
2013-05-22 23:20:00,52.7,42.0,29.92,NW,312,1.0,9.0,66,0.00,,,0.00,weatherlink.com 1.10,2013-05-23 06:20:00,
2013-05-22 23:35:00,52.2,41.0,29.92,SW,219,2.0,4.0,67,0.00,,,0.00,weatherlink.com 1.10,2013-05-23 06:35:00,
2013-05-22 23:50:00,52.0,41.0,29.92,NNW,332,3.0,6.0,67,0.00,,,0.00,weatherlink.com 1.10,2013-05-23 06:50:00,